sensor_id;sensor_type;location;lat;lon;timestamp;pressure;altitude;pressure_sealevel;temperature
6498;BMP280;3282;48.358;10.958;2022-07-22T00:00:49;96640.72;;;21.99
6498;BMP280;3282;48.358;10.958;2022-07-22T00:03:16;96641.44;;;22.00
6498;BMP280;3282;48.358;10.958;2022-07-22T00:05:42;96643.09;;;21.97
6498;BMP280;3282;48.358;10.958;2022-07-22T00:08:09;96640.03;;;21.95
6498;BMP280;3282;48.358;10.958;2022-07-22T00:10:36;96635.78;;;21.94
6498;BMP280;3282;48.358;10.958;2022-07-22T00:13:03;96635.13;;;21.90
6498;BMP280;3282;48.358;10.958;2022-07-22T00:15:29;96627.47;;;21.85
6498;BMP280;3282;48.358;10.958;2022-07-22T00:17:56;96625.16;;;21.83
6498;BMP280;3282;48.358;10.958;2022-07-22T00:20:23;96627.56;;;21.81
6498;BMP280;3282;48.358;10.958;2022-07-22T00:22:50;96628.50;;;21.74
6498;BMP280;3282;48.358;10.958;2022-07-22T00:25:16;96636.72;;;21.71
6498;BMP280;3282;48.358;10.958;2022-07-22T00:27:43;96632.16;;;21.68
6498;BMP280;3282;48.358;10.958;2022-07-22T00:30:10;96628.34;;;21.65
6498;BMP280;3282;48.358;10.958;2022-07-22T00:32:37;96629.94;;;21.62
6498;BMP280;3282;48.358;10.958;2022-07-22T00:35:04;96628.09;;;21.59
6498;BMP280;3282;48.358;10.958;2022-07-22T00:37:32;96624.69;;;21.55
6498;BMP280;3282;48.358;10.958;2022-07-22T00:39:59;96630.22;;;21.52
6498;BMP280;3282;48.358;10.958;2022-07-22T00:42:25;96627.59;;;21.48
6498;BMP280;3282;48.358;10.958;2022-07-22T00:44:53;96610.31;;;21.38
6498;BMP280;3282;48.358;10.958;2022-07-22T00:47:22;96617.19;;;21.43
6498;BMP280;3282;48.358;10.958;2022-07-22T00:49:49;96620.88;;;21.36
6498;BMP280;3282;48.358;10.958;2022-07-22T00:52:20;96622.13;;;21.31
6498;BMP280;3282;48.358;10.958;2022-07-22T00:54:49;96623.34;;;21.30
6498;BMP280;3282;48.358;10.958;2022-07-22T00:57:16;96624.09;;;21.31
6498;BMP280;3282;48.358;10.958;2022-07-22T00:59:43;96608.63;;;21.28
6498;BMP280;3282;48.358;10.958;2022-07-22T01:02:10;96612.09;;;21.28
6498;BMP280;3282;48.358;10.958;2022-07-22T01:04:37;96612.94;;;21.25
6498;BMP280;3282;48.358;10.958;2022-07-22T01:07:04;96613.78;;;21.22
6498;BMP280;3282;48.358;10.958;2022-07-22T01:09:30;96615.72;;;21.21
6498;BMP280;3282;48.358;10.958;2022-07-22T01:11:57;96603.84;;;21.15
6498;BMP280;3282;48.358;10.958;2022-07-22T01:14:24;96603.41;;;21.17
6498;BMP280;3282;48.358;10.958;2022-07-22T01:16:50;96606.56;;;21.15
6498;BMP280;3282;48.358;10.958;2022-07-22T01:19:17;96603.91;;;21.12
6498;BMP280;3282;48.358;10.958;2022-07-22T01:21:44;96603.22;;;21.07
6498;BMP280;3282;48.358;10.958;2022-07-22T01:24:11;96604.94;;;21.01
6498;BMP280;3282;48.358;10.958;2022-07-22T01:26:38;96605.41;;;20.96
6498;BMP280;3282;48.358;10.958;2022-07-22T01:29:07;96602.03;;;20.92
6498;BMP280;3282;48.358;10.958;2022-07-22T01:31:33;96607.56;;;20.88
6498;BMP280;3282;48.358;10.958;2022-07-22T01:34:00;96601.91;;;20.79
6498;BMP280;3282;48.358;10.958;2022-07-22T01:36:28;96609.66;;;20.80
6498;BMP280;3282;48.358;10.958;2022-07-22T01:38:56;96607.00;;;20.77
6498;BMP280;3282;48.358;10.958;2022-07-22T01:41:23;96605.41;;;20.79
6498;BMP280;3282;48.358;10.958;2022-07-22T01:43:50;96609.31;;;20.78
6498;BMP280;3282;48.358;10.958;2022-07-22T01:46:16;96604.28;;;20.77
6498;BMP280;3282;48.358;10.958;2022-07-22T01:48:45;96599.28;;;20.75
6498;BMP280;3282;48.358;10.958;2022-07-22T01:51:11;96598.59;;;20.71
6498;BMP280;3282;48.358;10.958;2022-07-22T01:53:38;96600.88;;;20.73
6498;BMP280;3282;48.358;10.958;2022-07-22T01:56:05;96608.75;;;20.67
6498;BMP280;3282;48.358;10.958;2022-07-22T01:58:36;96595.16;;;20.67
6498;BMP280;3282;48.358;10.958;2022-07-22T02:01:08;96600.59;;;20.67
6498;BMP280;3282;48.358;10.958;2022-07-22T02:03:35;96597.13;;;20.66
6498;BMP280;3282;48.358;10.958;2022-07-22T02:06:02;96594.84;;;20.65
6498;BMP280;3282;48.358;10.958;2022-07-22T02:08:29;96599.84;;;20.66
6498;BMP280;3282;48.358;10.958;2022-07-22T02:11:12;96600.28;;;20.65
6498;BMP280;3282;48.358;10.958;2022-07-22T02:13:52;96602.66;;;20.63
6498;BMP280;3282;48.358;10.958;2022-07-22T02:16:19;96595.66;;;20.62
6498;BMP280;3282;48.358;10.958;2022-07-22T02:18:48;96590.72;;;20.56
6498;BMP280;3282;48.358;10.958;2022-07-22T02:21:15;96595.13;;;20.50
6498;BMP280;3282;48.358;10.958;2022-07-22T02:23:41;96596.88;;;20.40
6498;BMP280;3282;48.358;10.958;2022-07-22T02:26:09;96585.31;;;20.36
6498;BMP280;3282;48.358;10.958;2022-07-22T02:28:36;96593.94;;;20.31
6498;BMP280;3282;48.358;10.958;2022-07-22T02:31:03;96592.22;;;20.21
6498;BMP280;3282;48.358;10.958;2022-07-22T02:33:30;96594.69;;;20.11
6498;BMP280;3282;48.358;10.958;2022-07-22T02:35:59;96586.69;;;20.04
6498;BMP280;3282;48.358;10.958;2022-07-22T02:38:26;96582.28;;;19.90
6498;BMP280;3282;48.358;10.958;2022-07-22T02:40:52;96581.59;;;19.86
6498;BMP280;3282;48.358;10.958;2022-07-22T02:43:20;96575.56;;;19.74
6498;BMP280;3282;48.358;10.958;2022-07-22T02:45:47;96584.84;;;19.77
6498;BMP280;3282;48.358;10.958;2022-07-22T02:48:14;96577.88;;;19.76
6498;BMP280;3282;48.358;10.958;2022-07-22T02:50:47;96586.41;;;19.74
6498;BMP280;3282;48.358;10.958;2022-07-22T02:53:20;96587.25;;;19.71
6498;BMP280;3282;48.358;10.958;2022-07-22T02:55:46;96581.81;;;19.71
6498;BMP280;3282;48.358;10.958;2022-07-22T02:58:13;96583.91;;;19.63
6498;BMP280;3282;48.358;10.958;2022-07-22T03:00:42;96580.41;;;19.63
6498;BMP280;3282;48.358;10.958;2022-07-22T03:03:09;96581.91;;;19.68
6498;BMP280;3282;48.358;10.958;2022-07-22T03:05:36;96595.88;;;19.66
6498;BMP280;3282;48.358;10.958;2022-07-22T03:08:25;96587.44;;;19.60
6498;BMP280;3282;48.358;10.958;2022-07-22T03:10:52;96591.19;;;19.67
6498;BMP280;3282;48.358;10.958;2022-07-22T03:13:21;96593.16;;;19.66
6498;BMP280;3282;48.358;10.958;2022-07-22T03:15:47;96597.09;;;19.61
6498;BMP280;3282;48.358;10.958;2022-07-22T03:18:14;96587.09;;;19.58
6498;BMP280;3282;48.358;10.958;2022-07-22T03:20:41;96587.50;;;19.57
6498;BMP280;3282;48.358;10.958;2022-07-22T03:23:07;96595.28;;;19.55
6498;BMP280;3282;48.358;10.958;2022-07-22T03:25:34;96587.56;;;19.53
6498;BMP280;3282;48.358;10.958;2022-07-22T03:28:02;96586.41;;;19.50
6498;BMP280;3282;48.358;10.958;2022-07-22T03:30:30;96581.47;;;19.45
6498;BMP280;3282;48.358;10.958;2022-07-22T03:32:57;96595.31;;;19.51
6498;BMP280;3282;48.358;10.958;2022-07-22T03:35:26;96587.19;;;19.51
6498;BMP280;3282;48.358;10.958;2022-07-22T03:37:52;96586.06;;;19.48
6498;BMP280;3282;48.358;10.958;2022-07-22T03:40:21;96590.81;;;19.44
6498;BMP280;3282;48.358;10.958;2022-07-22T03:42:47;96590.44;;;19.42
6498;BMP280;3282;48.358;10.958;2022-07-22T03:45:14;96591.59;;;19.41
6498;BMP280;3282;48.358;10.958;2022-07-22T03:47:41;96586.16;;;19.41
6498;BMP280;3282;48.358;10.958;2022-07-22T03:50:08;96587.00;;;19.38
6498;BMP280;3282;48.358;10.958;2022-07-22T03:52:35;96581.69;;;19.31
6498;BMP280;3282;48.358;10.958;2022-07-22T03:55:06;96586.66;;;19.36
6498;BMP280;3282;48.358;10.958;2022-07-22T03:57:34;96599.09;;;19.33
6498;BMP280;3282;48.358;10.958;2022-07-22T04:00:10;96590.19;;;19.33
6498;BMP280;3282;48.358;10.958;2022-07-22T04:02:39;96596.38;;;19.33
6498;BMP280;3282;48.358;10.958;2022-07-22T04:05:11;96593.34;;;19.31
6498;BMP280;3282;48.358;10.958;2022-07-22T04:07:39;96599.56;;;19.28
6498;BMP280;3282;48.358;10.958;2022-07-22T04:10:06;96591.44;;;19.28
6498;BMP280;3282;48.358;10.958;2022-07-22T04:12:38;96592.56;;;19.31
6498;BMP280;3282;48.358;10.958;2022-07-22T04:15:12;96591.72;;;19.34
6498;BMP280;3282;48.358;10.958;2022-07-22T04:17:39;96594.03;;;19.35
6498;BMP280;3282;48.358;10.958;2022-07-22T04:20:06;96591.66;;;19.37
6498;BMP280;3282;48.358;10.958;2022-07-22T04:22:50;96590.09;;;19.40
6498;BMP280;3282;48.358;10.958;2022-07-22T04:25:17;96596.28;;;19.41
6498;BMP280;3282;48.358;10.958;2022-07-22T04:27:43;96589.25;;;19.43
6498;BMP280;3282;48.358;10.958;2022-07-22T04:30:11;96582.19;;;19.49
6498;BMP280;3282;48.358;10.958;2022-07-22T04:32:39;96586.47;;;19.71
6498;BMP280;3282;48.358;10.958;2022-07-22T04:35:06;96583.16;;;19.83
6498;BMP280;3282;48.358;10.958;2022-07-22T04:37:38;96589.53;;;19.97
6498;BMP280;3282;48.358;10.958;2022-07-22T04:40:05;96584.41;;;20.23
6498;BMP280;3282;48.358;10.958;2022-07-22T04:42:32;96592.22;;;20.41
6498;BMP280;3282;48.358;10.958;2022-07-22T04:44:58;96582.41;;;20.64
6498;BMP280;3282;48.358;10.958;2022-07-22T04:47:25;96581.69;;;20.80
6498;BMP280;3282;48.358;10.958;2022-07-22T04:49:51;96585.13;;;21.01
6498;BMP280;3282;48.358;10.958;2022-07-22T04:52:20;96584.03;;;21.15
6498;BMP280;3282;48.358;10.958;2022-07-22T04:54:49;96590.84;;;21.23
6498;BMP280;3282;48.358;10.958;2022-07-22T04:57:16;96588.13;;;21.23
6498;BMP280;3282;48.358;10.958;2022-07-22T04:59:43;96588.69;;;21.31
6498;BMP280;3282;48.358;10.958;2022-07-22T05:02:10;96579.88;;;21.43
6498;BMP280;3282;48.358;10.958;2022-07-22T05:04:39;96579.44;;;21.61
6498;BMP280;3282;48.358;10.958;2022-07-22T05:07:05;96578.28;;;21.75
6498;BMP280;3282;48.358;10.958;2022-07-22T05:09:32;96580.84;;;21.96
6498;BMP280;3282;48.358;10.958;2022-07-22T05:11:58;96583.34;;;22.20
6498;BMP280;3282;48.358;10.958;2022-07-22T05:14:26;96584.38;;;22.52
6498;BMP280;3282;48.358;10.958;2022-07-22T05:16:52;96580.91;;;23.03
6498;BMP280;3282;48.358;10.958;2022-07-22T05:19:19;96581.78;;;23.48
6498;BMP280;3282;48.358;10.958;2022-07-22T05:21:46;96578.97;;;23.97
6498;BMP280;3282;48.358;10.958;2022-07-22T05:24:13;96581.69;;;24.51
6498;BMP280;3282;48.358;10.958;2022-07-22T05:26:39;96581.47;;;24.86
6498;BMP280;3282;48.358;10.958;2022-07-22T05:29:07;96586.31;;;25.41
6498;BMP280;3282;48.358;10.958;2022-07-22T05:31:33;96583.22;;;25.95
6498;BMP280;3282;48.358;10.958;2022-07-22T05:34:02;96580.47;;;26.38
6498;BMP280;3282;48.358;10.958;2022-07-22T05:36:33;96581.16;;;26.91
6498;BMP280;3282;48.358;10.958;2022-07-22T05:38:59;96586.25;;;27.62
6498;BMP280;3282;48.358;10.958;2022-07-22T05:41:27;96583.19;;;28.36
6498;BMP280;3282;48.358;10.958;2022-07-22T05:43:54;96580.03;;;28.99
6498;BMP280;3282;48.358;10.958;2022-07-22T05:46:20;96584.34;;;29.53
6498;BMP280;3282;48.358;10.958;2022-07-22T05:48:47;96578.78;;;30.06
6498;BMP280;3282;48.358;10.958;2022-07-22T05:51:15;96568.59;;;30.67
6498;BMP280;3282;48.358;10.958;2022-07-22T05:53:43;96574.56;;;31.43
6498;BMP280;3282;48.358;10.958;2022-07-22T05:56:10;96577.53;;;32.08
6498;BMP280;3282;48.358;10.958;2022-07-22T05:58:38;96577.91;;;32.58
6498;BMP280;3282;48.358;10.958;2022-07-22T06:01:06;96579.44;;;33.07
6498;BMP280;3282;48.358;10.958;2022-07-22T06:03:33;96576.09;;;33.56
6498;BMP280;3282;48.358;10.958;2022-07-22T06:06:00;96577.34;;;33.85
6498;BMP280;3282;48.358;10.958;2022-07-22T06:08:28;96570.66;;;34.19
6498;BMP280;3282;48.358;10.958;2022-07-22T06:10:56;96574.47;;;34.41
6498;BMP280;3282;48.358;10.958;2022-07-22T06:13:23;96576.44;;;34.65
6498;BMP280;3282;48.358;10.958;2022-07-22T06:15:50;96574.06;;;35.08
6498;BMP280;3282;48.358;10.958;2022-07-22T06:18:18;96575.84;;;35.24
6498;BMP280;3282;48.358;10.958;2022-07-22T06:20:45;96574.28;;;35.29
6498;BMP280;3282;48.358;10.958;2022-07-22T06:23:12;96578.09;;;35.26
6498;BMP280;3282;48.358;10.958;2022-07-22T06:25:38;96575.44;;;35.34
6498;BMP280;3282;48.358;10.958;2022-07-22T06:28:22;96582.69;;;35.69
6498;BMP280;3282;48.358;10.958;2022-07-22T06:30:49;96584.16;;;35.57
6498;BMP280;3282;48.358;10.958;2022-07-22T06:33:17;96586.44;;;35.99
6498;BMP280;3282;48.358;10.958;2022-07-22T06:35:43;96572.50;;;36.26
6498;BMP280;3282;48.358;10.958;2022-07-22T06:38:10;96579.81;;;36.63
6498;BMP280;3282;48.358;10.958;2022-07-22T06:41:13;96582.41;;;36.00
6498;BMP280;3282;48.358;10.958;2022-07-22T06:43:56;96576.16;;;35.94
6498;BMP280;3282;48.358;10.958;2022-07-22T06:46:41;96576.25;;;35.88
6498;BMP280;3282;48.358;10.958;2022-07-22T06:49:09;96587.63;;;36.17
6498;BMP280;3282;48.358;10.958;2022-07-22T06:51:39;96583.81;;;36.55
6498;BMP280;3282;48.358;10.958;2022-07-22T06:54:06;96582.44;;;36.61
6498;BMP280;3282;48.358;10.958;2022-07-22T06:56:32;96580.91;;;36.60
6498;BMP280;3282;48.358;10.958;2022-07-22T06:58:59;96587.91;;;36.88
6498;BMP280;3282;48.358;10.958;2022-07-22T07:01:27;96581.00;;;36.68
6498;BMP280;3282;48.358;10.958;2022-07-22T07:03:58;96579.66;;;36.83
6498;BMP280;3282;48.358;10.958;2022-07-22T07:06:25;96578.44;;;37.13
6498;BMP280;3282;48.358;10.958;2022-07-22T07:08:59;96582.41;;;36.96
6498;BMP280;3282;48.358;10.958;2022-07-22T07:11:27;96585.72;;;36.25
6498;BMP280;3282;48.358;10.958;2022-07-22T07:13:54;96585.16;;;36.40
6498;BMP280;3282;48.358;10.958;2022-07-22T07:16:21;96581.94;;;36.71
6498;BMP280;3282;48.358;10.958;2022-07-22T07:18:47;96578.41;;;36.70
6498;BMP280;3282;48.358;10.958;2022-07-22T07:21:14;96582.59;;;36.29
6498;BMP280;3282;48.358;10.958;2022-07-22T07:23:41;96573.91;;;36.19
6498;BMP280;3282;48.358;10.958;2022-07-22T07:26:08;96580.00;;;36.44
6498;BMP280;3282;48.358;10.958;2022-07-22T07:28:36;96572.53;;;36.74
6498;BMP280;3282;48.358;10.958;2022-07-22T07:31:23;96575.78;;;36.86
6498;BMP280;3282;48.358;10.958;2022-07-22T07:33:51;96579.59;;;36.96
6498;BMP280;3282;48.358;10.958;2022-07-22T07:36:20;96574.53;;;37.08
6498;BMP280;3282;48.358;10.958;2022-07-22T07:38:49;96578.88;;;36.96
6498;BMP280;3282;48.358;10.958;2022-07-22T07:41:16;96572.59;;;36.82
6498;BMP280;3282;48.358;10.958;2022-07-22T07:43:47;96569.69;;;36.53
6498;BMP280;3282;48.358;10.958;2022-07-22T07:46:13;96568.50;;;36.83
6498;BMP280;3282;48.358;10.958;2022-07-22T07:48:40;96572.59;;;36.82
6498;BMP280;3282;48.358;10.958;2022-07-22T07:51:07;96557.69;;;36.31
6498;BMP280;3282;48.358;10.958;2022-07-22T07:53:34;96554.00;;;36.01
6498;BMP280;3282;48.358;10.958;2022-07-22T07:56:01;96559.03;;;36.03
6498;BMP280;3282;48.358;10.958;2022-07-22T07:58:29;96561.59;;;36.28
6498;BMP280;3282;48.358;10.958;2022-07-22T08:01:04;96555.63;;;36.10
6498;BMP280;3282;48.358;10.958;2022-07-22T08:03:31;96556.47;;;36.05
6498;BMP280;3282;48.358;10.958;2022-07-22T08:05:58;96562.03;;;35.65
6498;BMP280;3282;48.358;10.958;2022-07-22T08:08:28;96556.47;;;35.65
6498;BMP280;3282;48.358;10.958;2022-07-22T08:10:57;96561.38;;;35.72
6498;BMP280;3282;48.358;10.958;2022-07-22T08:13:46;96553.25;;;35.87
6498;BMP280;3282;48.358;10.958;2022-07-22T08:16:33;96554.94;;;36.04
6498;BMP280;3282;48.358;10.958;2022-07-22T08:19:00;96552.91;;;35.91
6498;BMP280;3282;48.358;10.958;2022-07-22T08:21:27;96548.97;;;35.59
6498;BMP280;3282;48.358;10.958;2022-07-22T08:23:56;96545.41;;;35.86
6498;BMP280;3282;48.358;10.958;2022-07-22T08:26:24;96542.44;;;35.97
6498;BMP280;3282;48.358;10.958;2022-07-22T08:28:57;96549.00;;;36.00
6498;BMP280;3282;48.358;10.958;2022-07-22T08:31:27;96543.94;;;36.25
6498;BMP280;3282;48.358;10.958;2022-07-22T08:33:54;96539.31;;;36.28
6498;BMP280;3282;48.358;10.958;2022-07-22T08:36:25;96539.38;;;36.36
6498;BMP280;3282;48.358;10.958;2022-07-22T08:38:52;96536.53;;;36.49
6498;BMP280;3282;48.358;10.958;2022-07-22T08:41:21;96534.31;;;36.47
6498;BMP280;3282;48.358;10.958;2022-07-22T08:43:49;96538.41;;;36.68
6498;BMP280;3282;48.358;10.958;2022-07-22T08:46:16;96530.06;;;36.89
6498;BMP280;3282;48.358;10.958;2022-07-22T08:49:15;96530.97;;;36.14
6498;BMP280;3282;48.358;10.958;2022-07-22T08:52:03;96534.91;;;36.19
6498;BMP280;3282;48.358;10.958;2022-07-22T08:54:38;96526.00;;;36.34
6498;BMP280;3282;48.358;10.958;2022-07-22T08:57:06;96520.00;;;36.30
6498;BMP280;3282;48.358;10.958;2022-07-22T08:59:33;96519.19;;;35.95
6498;BMP280;3282;48.358;10.958;2022-07-22T09:04:59;96517.44;;;36.18
6498;BMP280;3282;48.358;10.958;2022-07-22T09:07:43;96512.69;;;36.40
6498;BMP280;3282;48.358;10.958;2022-07-22T09:10:18;96512.06;;;36.21
6498;BMP280;3282;48.358;10.958;2022-07-22T09:13:08;96514.53;;;36.38
6498;BMP280;3282;48.358;10.958;2022-07-22T09:16:01;96508.50;;;36.33
6498;BMP280;3282;48.358;10.958;2022-07-22T09:18:51;96500.53;;;36.51
6498;BMP280;3282;48.358;10.958;2022-07-22T09:21:38;96505.28;;;36.43
6498;BMP280;3282;48.358;10.958;2022-07-22T09:24:40;96506.09;;;36.51
6498;BMP280;3282;48.358;10.958;2022-07-22T09:27:27;96503.44;;;36.11
6498;BMP280;3282;48.358;10.958;2022-07-22T09:30:25;96504.31;;;36.40
6498;BMP280;3282;48.358;10.958;2022-07-22T09:33:03;96496.59;;;36.33
6498;BMP280;3282;48.358;10.958;2022-07-22T09:35:40;96492.19;;;36.03
6498;BMP280;3282;48.358;10.958;2022-07-22T09:38:14;96491.56;;;35.56
6498;BMP280;3282;48.358;10.958;2022-07-22T09:40:43;96493.09;;;34.98
6498;BMP280;3282;48.358;10.958;2022-07-22T09:43:13;96493.97;;;35.20
6498;BMP280;3282;48.358;10.958;2022-07-22T09:45:50;96486.53;;;35.41
6498;BMP280;3282;48.358;10.958;2022-07-22T09:48:21;96485.41;;;35.17
6498;BMP280;3282;48.358;10.958;2022-07-22T09:50:55;96475.47;;;35.22
6498;BMP280;3282;48.358;10.958;2022-07-22T09:53:30;96475.72;;;35.38
6498;BMP280;3282;48.358;10.958;2022-07-22T09:56:04;96477.28;;;35.20
6498;BMP280;3282;48.358;10.958;2022-07-22T09:58:33;96477.81;;;34.72
6498;BMP280;3282;48.358;10.958;2022-07-22T10:01:04;96477.28;;;34.35
6498;BMP280;3282;48.358;10.958;2022-07-22T10:03:34;96472.34;;;34.09
6498;BMP280;3282;48.358;10.958;2022-07-22T10:06:04;96472.63;;;34.24
6498;BMP280;3282;48.358;10.958;2022-07-22T10:08:33;96476.16;;;34.63
6498;BMP280;3282;48.358;10.958;2022-07-22T10:11:03;96462.78;;;34.94
6498;BMP280;3282;48.358;10.958;2022-07-22T10:13:31;96462.88;;;35.21
6498;BMP280;3282;48.358;10.958;2022-07-22T10:15:58;96454.31;;;35.33
6498;BMP280;3282;48.358;10.958;2022-07-22T10:18:26;96455.16;;;35.41
6498;BMP280;3282;48.358;10.958;2022-07-22T10:21:10;96461.50;;;35.55
6498;BMP280;3282;48.358;10.958;2022-07-22T10:29:32;96450.78;;;35.59
6498;BMP280;3282;48.358;10.958;2022-07-22T10:32:21;96447.03;;;35.83
6498;BMP280;3282;48.358;10.958;2022-07-22T10:45:38;96453.75;;;35.07
6498;BMP280;3282;48.358;10.958;2022-07-22T10:48:16;96450.03;;;35.18
6498;BMP280;3282;48.358;10.958;2022-07-22T10:51:15;96443.59;;;35.23
6498;BMP280;3282;48.358;10.958;2022-07-22T10:53:52;96438.78;;;35.37
6498;BMP280;3282;48.358;10.958;2022-07-22T10:56:28;96437.63;;;35.46
6498;BMP280;3282;48.358;10.958;2022-07-22T10:58:59;96436.22;;;35.26
6498;BMP280;3282;48.358;10.958;2022-07-22T11:01:29;96429.69;;;35.23
6498;BMP280;3282;48.358;10.958;2022-07-22T11:04:06;96424.03;;;35.56
6498;BMP280;3282;48.358;10.958;2022-07-22T11:06:38;96425.28;;;35.28
6498;BMP280;3282;48.358;10.958;2022-07-22T11:09:08;96420.28;;;35.53
6498;BMP280;3282;48.358;10.958;2022-07-22T11:14:14;96417.56;;;35.74
6498;BMP280;3282;48.358;10.958;2022-07-22T11:16:41;96412.03;;;35.48
6498;BMP280;3282;48.358;10.958;2022-07-22T11:19:08;96415.34;;;35.46
6498;BMP280;3282;48.358;10.958;2022-07-22T11:21:35;96416.31;;;35.35
6498;BMP280;3282;48.358;10.958;2022-07-22T11:24:11;96411.94;;;35.26
6498;BMP280;3282;48.358;10.958;2022-07-22T11:26:43;96409.06;;;35.32
6498;BMP280;3282;48.358;10.958;2022-07-22T11:29:37;96409.44;;;34.96
6498;BMP280;3282;48.358;10.958;2022-07-22T11:32:08;96407.16;;;34.81
6498;BMP280;3282;48.358;10.958;2022-07-22T11:34:38;96407.28;;;34.88
6498;BMP280;3282;48.358;10.958;2022-07-22T11:37:05;96397.25;;;34.85
6498;BMP280;3282;48.358;10.958;2022-07-22T11:39:32;96395.88;;;34.73
6498;BMP280;3282;48.358;10.958;2022-07-22T11:41:59;96390.41;;;35.00
6498;BMP280;3282;48.358;10.958;2022-07-22T11:44:32;96390.00;;;35.23
6498;BMP280;3282;48.358;10.958;2022-07-22T11:46:59;96389.22;;;35.49
6498;BMP280;3282;48.358;10.958;2022-07-22T11:49:33;96385.50;;;35.33
6498;BMP280;3282;48.358;10.958;2022-07-22T11:52:01;96381.00;;;35.30
6498;BMP280;3282;48.358;10.958;2022-07-22T11:54:28;96377.03;;;35.39
6498;BMP280;3282;48.358;10.958;2022-07-22T11:56:55;96368.72;;;35.25
6498;BMP280;3282;48.358;10.958;2022-07-22T11:59:23;96374.50;;;35.14
6498;BMP280;3282;48.358;10.958;2022-07-22T12:01:50;96372.53;;;35.22
6498;BMP280;3282;48.358;10.958;2022-07-22T12:04:22;96371.16;;;35.42
6498;BMP280;3282;48.358;10.958;2022-07-22T12:06:49;96366.59;;;35.18
6498;BMP280;3282;48.358;10.958;2022-07-22T12:09:22;96361.63;;;35.38
6498;BMP280;3282;48.358;10.958;2022-07-22T12:11:49;96366.13;;;35.27
6498;BMP280;3282;48.358;10.958;2022-07-22T12:14:18;96359.41;;;35.36
6498;BMP280;3282;48.358;10.958;2022-07-22T12:16:58;96357.97;;;35.56
6498;BMP280;3282;48.358;10.958;2022-07-22T12:19:27;96333.19;;;35.31
6498;BMP280;3282;48.358;10.958;2022-07-22T12:22:01;96351.91;;;35.31
6498;BMP280;3282;48.358;10.958;2022-07-22T12:24:33;96343.16;;;35.00
6498;BMP280;3282;48.358;10.958;2022-07-22T12:29:40;96340.03;;;34.90
6498;BMP280;3282;48.358;10.958;2022-07-22T12:32:27;96341.31;;;34.89
6498;BMP280;3282;48.358;10.958;2022-07-22T12:37:22;96338.88;;;35.12
6498;BMP280;3282;48.358;10.958;2022-07-22T12:40:07;96338.75;;;35.05
6498;BMP280;3282;48.358;10.958;2022-07-22T12:42:39;96338.34;;;35.14
6498;BMP280;3282;48.358;10.958;2022-07-22T12:45:15;96332.53;;;35.12
6498;BMP280;3282;48.358;10.958;2022-07-22T12:50:28;96323.69;;;35.13
6498;BMP280;3282;48.358;10.958;2022-07-22T12:53:06;96322.16;;;35.26
6498;BMP280;3282;48.358;10.958;2022-07-22T12:55:54;96320.78;;;35.19
6498;BMP280;3282;48.358;10.958;2022-07-22T12:58:30;96327.75;;;35.12
6498;BMP280;3282;48.358;10.958;2022-07-22T13:00:58;96321.00;;;35.08
6498;BMP280;3282;48.358;10.958;2022-07-22T13:03:26;96319.28;;;35.18
6498;BMP280;3282;48.358;10.958;2022-07-22T13:05:55;96311.91;;;35.21
6498;BMP280;3282;48.358;10.958;2022-07-22T13:08:23;96311.38;;;35.09
6498;BMP280;3282;48.358;10.958;2022-07-22T13:10:51;96303.91;;;35.04
6498;BMP280;3282;48.358;10.958;2022-07-22T13:13:18;96300.34;;;34.90
6498;BMP280;3282;48.358;10.958;2022-07-22T13:15:45;96301.94;;;35.12
6498;BMP280;3282;48.358;10.958;2022-07-22T13:18:12;96298.97;;;34.96
6498;BMP280;3282;48.358;10.958;2022-07-22T13:20:39;96285.16;;;35.04
6498;BMP280;3282;48.358;10.958;2022-07-22T13:23:05;96294.16;;;35.10
6498;BMP280;3282;48.358;10.958;2022-07-22T13:25:32;96303.47;;;34.99
6498;BMP280;3282;48.358;10.958;2022-07-22T13:27:59;96292.75;;;35.17
6498;BMP280;3282;48.358;10.958;2022-07-22T13:30:26;96287.31;;;35.11
6498;BMP280;3282;48.358;10.958;2022-07-22T13:32:53;96287.72;;;35.29
6498;BMP280;3282;48.358;10.958;2022-07-22T13:35:20;96272.47;;;35.09
6498;BMP280;3282;48.358;10.958;2022-07-22T13:37:47;96291.66;;;35.34
6498;BMP280;3282;48.358;10.958;2022-07-22T13:40:13;96279.13;;;35.40
6498;BMP280;3282;48.358;10.958;2022-07-22T13:42:41;96278.41;;;35.26
6498;BMP280;3282;48.358;10.958;2022-07-22T13:45:08;96282.59;;;35.20
6498;BMP280;3282;48.358;10.958;2022-07-22T13:47:36;96271.69;;;35.08
6498;BMP280;3282;48.358;10.958;2022-07-22T13:50:04;96282.28;;;34.96
6498;BMP280;3282;48.358;10.958;2022-07-22T13:52:31;96282.72;;;35.00
6498;BMP280;3282;48.358;10.958;2022-07-22T13:54:57;96269.22;;;34.91
6498;BMP280;3282;48.358;10.958;2022-07-22T13:57:24;96271.59;;;35.00
6498;BMP280;3282;48.358;10.958;2022-07-22T13:59:51;96278.66;;;35.01
6498;BMP280;3282;48.358;10.958;2022-07-22T14:02:18;96278.44;;;34.99
6498;BMP280;3282;48.358;10.958;2022-07-22T14:04:44;96281.66;;;34.90
6498;BMP280;3282;48.358;10.958;2022-07-22T14:07:12;96276.31;;;34.92
6498;BMP280;3282;48.358;10.958;2022-07-22T14:09:39;96281.44;;;34.88
6498;BMP280;3282;48.358;10.958;2022-07-22T14:12:06;96281.63;;;34.77
6498;BMP280;3282;48.358;10.958;2022-07-22T14:14:33;96270.41;;;34.69
6498;BMP280;3282;48.358;10.958;2022-07-22T14:16:59;96281.09;;;34.65
6498;BMP280;3282;48.358;10.958;2022-07-22T14:19:28;96272.88;;;34.72
6498;BMP280;3282;48.358;10.958;2022-07-22T14:21:55;96274.78;;;34.64
6498;BMP280;3282;48.358;10.958;2022-07-22T14:24:22;96268.38;;;34.69
6498;BMP280;3282;48.358;10.958;2022-07-22T14:26:49;96265.41;;;34.67
6498;BMP280;3282;48.358;10.958;2022-07-22T14:29:16;96272.00;;;34.64
6498;BMP280;3282;48.358;10.958;2022-07-22T14:31:42;96270.72;;;34.65
6498;BMP280;3282;48.358;10.958;2022-07-22T14:34:09;96264.63;;;34.53
6498;BMP280;3282;48.358;10.958;2022-07-22T14:36:35;96261.41;;;34.49
6498;BMP280;3282;48.358;10.958;2022-07-22T14:39:03;96261.66;;;34.65
6498;BMP280;3282;48.358;10.958;2022-07-22T14:41:30;96265.06;;;34.71
6498;BMP280;3282;48.358;10.958;2022-07-22T14:43:56;96261.78;;;34.72
6498;BMP280;3282;48.358;10.958;2022-07-22T14:46:23;96255.03;;;34.81
6498;BMP280;3282;48.358;10.958;2022-07-22T14:48:50;96258.22;;;34.72
6498;BMP280;3282;48.358;10.958;2022-07-22T14:51:20;96246.13;;;34.56
6498;BMP280;3282;48.358;10.958;2022-07-22T14:53:47;96254.78;;;34.66
6498;BMP280;3282;48.358;10.958;2022-07-22T14:56:14;96242.84;;;34.71
6498;BMP280;3282;48.358;10.958;2022-07-22T14:58:41;96248.72;;;34.54
6498;BMP280;3282;48.358;10.958;2022-07-22T15:01:08;96244.53;;;34.47
6498;BMP280;3282;48.358;10.958;2022-07-22T15:03:34;96246.78;;;34.49
6498;BMP280;3282;48.358;10.958;2022-07-22T15:06:01;96251.00;;;34.36